createdAt,value
2018-01-28T00:02:17.549Z,18.00
2018-01-28T00:04:45.853Z,15.87
2018-01-28T00:07:14.288Z,13.73
2018-01-28T00:09:42.564Z,13.20
2018-01-28T00:12:10.833Z,17.40
2018-01-28T00:14:39.996Z,13.80
2018-01-28T00:17:08.307Z,15.40
2018-01-28T00:19:37.353Z,16.63
2018-01-28T00:22:05.601Z,14.40
2018-01-28T00:24:34.841Z,19.07
2018-01-28T00:27:03.119Z,17.80
2018-01-28T00:29:31.486Z,19.03
2018-01-28T00:32:00.514Z,16.47
2018-01-28T00:34:28.763Z,17.73
2018-01-28T00:36:57.055Z,17.03
2018-01-28T00:39:25.315Z,15.93
2018-01-28T00:41:53.586Z,15.80
2018-01-28T00:44:22.021Z,14.93
2018-01-28T00:46:50.309Z,21.63
2018-01-28T00:49:18.604Z,19.10
2018-01-28T00:51:46.963Z,14.23
2018-01-28T00:54:15.255Z,16.50
2018-01-28T00:56:43.527Z,13.13
2018-01-28T00:59:11.811Z,16.27
2018-01-28T01:01:40.081Z,12.80
2018-01-28T01:04:08.344Z,14.03
2018-01-28T01:06:36.637Z,16.50
2018-01-28T01:09:04.882Z,14.70
2018-01-28T01:11:33.162Z,15.33
2018-01-28T01:14:01.462Z,15.80
2018-01-28T01:16:29.803Z,14.23
2018-01-28T01:18:58.074Z,11.30
2018-01-28T01:21:26.334Z,15.23
2018-01-28T01:23:54.675Z,13.53
2018-01-28T01:26:22.918Z,13.63
2018-01-28T01:28:51.182Z,16.17
2018-01-28T01:31:19.442Z,13.97
2018-01-28T01:33:47.694Z,15.83
2018-01-28T01:36:16.775Z,14.43
2018-01-28T01:38:45.020Z,12.83
2018-01-28T01:41:13.410Z,11.70
2018-01-28T01:43:41.705Z,13.37
2018-01-28T01:46:10.742Z,15.07
2018-01-28T01:48:39.058Z,11.33
2018-01-28T01:51:08.827Z,12.50
2018-01-28T01:53:37.114Z,12.70
2018-01-28T01:56:05.364Z,12.47
2018-01-28T01:58:33.713Z,12.27
2018-01-28T02:01:02.776Z,13.03
2018-01-28T02:03:31.042Z,12.03
2018-01-28T02:05:59.296Z,12.87
2018-01-28T02:08:27.663Z,11.80
2018-01-28T02:10:55.935Z,12.20
2018-01-28T02:13:24.186Z,13.20
2018-01-28T02:15:53.202Z,14.83
2018-01-28T02:18:21.464Z,13.17
2018-01-28T02:20:49.698Z,11.27
2018-01-28T02:23:18.125Z,12.10
2018-01-28T02:25:46.379Z,12.67
2018-01-28T02:28:14.608Z,11.60
2018-01-28T02:30:42.928Z,11.30
2018-01-28T02:33:11.157Z,12.87
2018-01-28T02:35:39.447Z,12.70
2018-01-28T02:38:07.771Z,13.93
2018-01-28T02:40:36.101Z,11.73
2018-01-28T02:43:04.369Z,12.20
2018-01-28T02:45:32.642Z,12.37
2018-01-28T02:48:00.963Z,12.13
2018-01-28T02:50:29.249Z,14.90
2018-01-28T02:52:57.583Z,16.57
2018-01-28T02:55:25.843Z,12.90
2018-01-28T02:57:54.125Z,12.40
2018-01-28T03:00:22.376Z,13.80
2018-01-28T03:02:50.633Z,13.47
2018-01-28T03:05:18.999Z,11.53
2018-01-28T03:07:47.259Z,10.80
2018-01-28T03:10:16.277Z,13.77
2018-01-28T03:12:44.534Z,11.30
2018-01-28T03:15:12.801Z,12.93
2018-01-28T03:17:41.073Z,12.60
2018-01-28T03:20:09.368Z,11.70
2018-01-28T03:22:37.628Z,11.40
2018-01-28T03:25:06.661Z,11.47
2018-01-28T03:27:34.946Z,12.00
2018-01-28T03:30:03.215Z,12.50
2018-01-28T03:32:31.459Z,12.90
2018-01-28T03:34:59.748Z,14.00
2018-01-28T03:37:28.012Z,14.00
2018-01-28T03:39:56.518Z,12.13
2018-01-28T03:42:24.758Z,11.70
2018-01-28T03:44:53.020Z,12.13
2018-01-28T03:47:21.314Z,12.83
2018-01-28T03:49:49.557Z,12.03
2018-01-28T03:52:18.734Z,11.80
2018-01-28T03:54:47.036Z,11.03
2018-01-28T03:57:16.151Z,10.63
2018-01-28T03:59:44.561Z,10.20
2018-01-28T04:02:12.877Z,10.20
2018-01-28T04:04:41.158Z,12.13
2018-01-28T04:07:10.375Z,11.33
2018-01-28T04:09:38.657Z,11.03
2018-01-28T04:12:06.925Z,12.67
2018-01-28T04:14:35.263Z,9.70
2018-01-28T04:17:03.525Z,9.60
2018-01-28T04:19:31.765Z,10.93
2018-01-28T04:22:00.027Z,10.83
2018-01-28T04:24:28.286Z,10.80
2018-01-28T04:26:57.319Z,9.97
2018-01-28T04:29:25.667Z,10.60
2018-01-28T04:31:53.901Z,9.57
2018-01-28T04:34:22.322Z,10.37
2018-01-28T04:36:50.580Z,8.97
2018-01-28T04:39:18.842Z,10.10
2018-01-28T04:41:47.865Z,9.53
2018-01-28T04:44:16.118Z,11.90
2018-01-28T04:46:45.181Z,11.43
2018-01-28T04:49:13.423Z,9.83
2018-01-28T04:51:41.665Z,9.93
2018-01-28T04:54:10.686Z,10.10
2018-01-28T04:56:38.940Z,10.63
2018-01-28T04:59:07.203Z,10.53
2018-01-28T05:01:35.457Z,7.43
2018-01-28T05:04:04.328Z,8.67
2018-01-28T05:06:32.599Z,9.63
2018-01-28T05:09:00.965Z,9.47
2018-01-28T05:11:29.502Z,8.30
2018-01-28T05:13:57.874Z,7.03
2018-01-28T05:16:26.963Z,8.70
2018-01-28T05:18:55.961Z,7.80
2018-01-28T05:21:24.973Z,8.67
2018-01-28T05:23:53.214Z,8.63
2018-01-28T05:26:22.251Z,8.23
2018-01-28T05:28:50.478Z,9.37
2018-01-28T05:31:18.759Z,10.77
2018-01-28T05:33:47.138Z,11.53
2018-01-28T05:36:16.196Z,10.90
2018-01-28T05:38:44.455Z,11.10
2018-01-28T05:41:12.715Z,12.83
2018-01-28T05:43:40.998Z,11.40
2018-01-28T05:46:09.248Z,11.80
2018-01-28T05:48:37.513Z,12.70
2018-01-28T05:51:06.525Z,17.13
2018-01-28T05:53:34.811Z,16.23
2018-01-28T05:56:03.233Z,14.10
2018-01-28T05:58:31.739Z,14.13
2018-01-28T06:00:59.957Z,14.30
2018-01-28T06:03:28.227Z,14.80
2018-01-28T06:05:56.679Z,14.10
2018-01-28T06:08:25.075Z,15.10
2018-01-28T06:10:53.327Z,14.83
2018-01-28T06:13:21.755Z,14.83
2018-01-28T06:15:50.045Z,15.67
2018-01-28T06:18:18.316Z,19.63
2018-01-28T06:20:46.578Z,18.83
2018-01-28T06:23:14.861Z,19.83
2018-01-28T06:25:43.152Z,21.20
2018-01-28T06:28:11.492Z,17.13
2018-01-28T06:30:39.734Z,20.10
2018-01-28T06:33:08.003Z,18.50
2018-01-28T06:35:36.251Z,17.43
2018-01-28T06:38:05.316Z,17.53
2018-01-28T06:40:33.535Z,19.53
2018-01-28T06:43:01.817Z,20.13
2018-01-28T06:45:30.073Z,18.20
2018-01-28T06:47:59.114Z,19.37
2018-01-28T06:50:27.375Z,19.67
2018-01-28T06:52:55.623Z,21.83
2018-01-28T06:55:23.902Z,21.30
2018-01-28T06:57:52.190Z,19.70
2018-01-28T07:00:20.466Z,18.13
2018-01-28T07:02:48.729Z,20.00
2018-01-28T07:05:17.012Z,21.50
2018-01-28T07:07:45.407Z,21.10
2018-01-28T07:10:13.696Z,20.90
2018-01-28T07:12:41.967Z,22.57
2018-01-28T07:15:10.261Z,20.20
2018-01-28T07:17:38.591Z,22.17
2018-01-28T07:20:07.077Z,25.43
2018-01-28T07:22:35.313Z,25.23
2018-01-28T07:25:04.426Z,24.07
2018-01-28T07:27:32.728Z,24.97
2018-01-28T07:30:00.990Z,23.40
2018-01-28T07:32:29.303Z,27.50
2018-01-28T07:34:57.539Z,26.90
2018-01-28T07:37:25.782Z,31.17
2018-01-28T07:39:54.811Z,29.27
2018-01-28T07:42:23.087Z,32.77
2018-01-28T07:44:51.391Z,30.43
2018-01-28T07:47:19.624Z,32.37
2018-01-28T07:49:47.904Z,28.40
2018-01-28T07:52:16.187Z,29.93
2018-01-28T07:54:44.521Z,33.63
2018-01-28T07:57:13.712Z,27.70
2018-01-28T07:59:41.959Z,32.63
2018-01-28T08:02:10.230Z,29.13
2018-01-28T08:04:38.503Z,35.07
2018-01-28T08:07:06.794Z,37.97
2018-01-28T08:09:35.057Z,35.40
2018-01-28T08:12:03.293Z,32.97
2018-01-28T08:14:32.322Z,35.70
2018-01-28T08:17:00.616Z,39.03
2018-01-28T08:19:28.878Z,41.43
2018-01-28T08:21:57.143Z,38.40
2018-01-28T08:24:25.409Z,34.23
2018-01-28T08:26:53.700Z,31.40
2018-01-28T08:29:21.986Z,33.43
2018-01-28T08:31:50.250Z,35.53
2018-01-28T08:34:18.556Z,37.23
2018-01-28T08:36:46.817Z,36.37
2018-01-28T08:39:15.148Z,32.23
2018-01-28T08:41:43.460Z,38.73
2018-01-28T08:44:11.735Z,37.50
2018-01-28T08:46:40.004Z,36.40
2018-01-28T08:49:08.262Z,28.20
2018-01-28T08:51:36.653Z,31.93
2018-01-28T08:54:05.088Z,38.40
2018-01-28T08:56:34.099Z,40.20
2018-01-28T08:59:02.383Z,37.87
2018-01-28T09:01:30.685Z,32.30
2018-01-28T09:03:58.944Z,32.50
2018-01-28T09:06:27.221Z,33.53
2018-01-28T09:08:55.493Z,37.30
2018-01-28T09:11:23.786Z,38.13
2018-01-28T09:13:52.134Z,35.23
2018-01-28T09:16:20.392Z,33.80
2018-01-28T09:18:48.677Z,37.93
2018-01-28T09:21:16.933Z,37.37
2018-01-28T09:23:45.212Z,34.30
2018-01-28T09:26:13.462Z,37.43
2018-01-28T09:28:42.498Z,36.07
2018-01-28T09:31:10.922Z,38.57
2018-01-28T09:33:39.992Z,36.33
2018-01-28T09:36:08.243Z,37.03
2018-01-28T09:38:36.536Z,30.10
2018-01-28T09:41:04.843Z,29.77
2018-01-28T09:43:34.066Z,31.90
2018-01-28T09:46:02.354Z,35.70
2018-01-28T09:48:30.621Z,29.70
2018-01-28T09:50:59.083Z,30.17
2018-01-28T09:53:28.111Z,29.33
2018-01-28T09:55:56.390Z,27.40
2018-01-28T09:58:24.715Z,29.43
2018-01-28T10:00:52.946Z,30.70
2018-01-28T10:03:21.322Z,28.87
2018-01-28T10:05:50.008Z,29.93
2018-01-28T10:08:18.419Z,30.07
2018-01-28T10:10:46.748Z,28.47
2018-01-28T10:13:15.027Z,24.60
2018-01-28T10:15:43.328Z,25.70
2018-01-28T10:18:11.605Z,28.43
2018-01-28T10:20:39.867Z,25.33
2018-01-28T10:23:08.163Z,25.67
2018-01-28T10:25:36.434Z,24.73
2018-01-28T10:28:05.618Z,30.63
2018-01-28T10:30:33.883Z,27.77
2018-01-28T10:33:02.270Z,28.43
2018-01-28T10:35:30.545Z,29.77
2018-01-28T10:38:00.000Z,25.50
2018-01-28T10:40:29.042Z,30.70
2018-01-28T10:42:57.418Z,26.60
2018-01-28T10:45:25.698Z,28.57
2018-01-28T10:47:53.997Z,31.97
2018-01-28T10:50:22.258Z,25.03
2018-01-28T10:52:50.555Z,23.23
2018-01-28T10:55:19.584Z,29.03
2018-01-28T10:57:47.894Z,27.07
2018-01-28T11:00:16.148Z,24.50
2018-01-28T11:02:44.393Z,25.30
2018-01-28T11:05:12.690Z,29.37
2018-01-28T11:07:40.959Z,26.33
2018-01-28T11:10:09.350Z,28.73
2018-01-28T11:12:37.620Z,25.47
2018-01-28T11:15:05.931Z,25.97
2018-01-28T11:17:34.979Z,24.60
2018-01-28T11:20:03.285Z,27.27
2018-01-28T11:22:31.602Z,23.83
2018-01-28T11:25:00.090Z,24.70
2018-01-28T11:27:29.450Z,28.60
2018-01-28T11:29:57.737Z,22.50
2018-01-28T11:32:26.038Z,25.07
2018-01-28T11:34:55.067Z,24.63
2018-01-28T11:37:23.342Z,24.10
2018-01-28T11:39:51.664Z,21.20
2018-01-28T11:42:20.031Z,21.27
2018-01-28T11:44:48.301Z,22.77
2018-01-28T11:47:16.553Z,21.83
2018-01-28T11:49:44.999Z,22.07
2018-01-28T11:52:14.034Z,26.30
2018-01-28T11:54:42.327Z,21.13
2018-01-28T11:57:10.656Z,19.33
2018-01-28T11:59:39.043Z,21.37
2018-01-28T12:02:08.478Z,25.60
2018-01-28T12:04:37.561Z,21.40
2018-01-28T12:07:05.815Z,20.73
2018-01-28T12:09:34.157Z,20.13
2018-01-28T12:12:03.171Z,17.77
2018-01-28T12:14:31.647Z,21.47
2018-01-28T12:16:59.911Z,17.63
2018-01-28T12:19:28.194Z,17.43
2018-01-28T12:21:56.453Z,23.43
2018-01-28T12:24:24.747Z,21.50
2018-01-28T12:26:53.044Z,19.37
2018-01-28T12:29:21.346Z,18.40
2018-01-28T12:31:49.738Z,16.40
2018-01-28T12:34:18.877Z,21.67
2018-01-28T12:36:47.659Z,17.93
2018-01-28T12:39:16.084Z,17.10
2018-01-28T12:41:44.416Z,20.57
2018-01-28T12:44:12.675Z,19.67
2018-01-28T12:46:41.392Z,18.10
2018-01-28T12:49:10.599Z,17.70
2018-01-28T12:51:38.911Z,17.33
2018-01-28T12:54:07.927Z,19.13
2018-01-28T12:56:36.202Z,18.97
2018-01-28T12:59:04.554Z,19.67
2018-01-28T13:01:33.767Z,16.63
2018-01-28T13:04:02.043Z,20.20
2018-01-28T13:06:30.555Z,17.90
2018-01-28T13:08:58.834Z,15.60
2018-01-28T13:11:27.729Z,12.27
2018-01-28T13:14:04.190Z,14.17
2018-01-28T13:16:33.312Z,16.00
2018-01-28T13:19:01.643Z,13.17
2018-01-28T13:21:30.878Z,13.57
2018-01-28T13:24:02.766Z,12.97
2018-01-28T13:26:31.863Z,15.83
2018-01-28T13:29:00.883Z,12.10
2018-01-28T13:31:35.140Z,12.47
2018-01-28T13:34:03.464Z,12.23
2018-01-28T13:36:31.742Z,13.90
2018-01-28T13:39:01.365Z,11.37
2018-01-28T13:54:34.607Z,10.00
2018-01-28T13:57:03.668Z,12.97
2018-01-28T13:59:32.691Z,12.93
2018-01-28T14:02:00.977Z,16.47
2018-01-28T14:04:29.307Z,11.57
2018-01-28T14:06:57.625Z,14.27
2018-01-28T14:09:25.895Z,16.00
2018-01-28T14:11:54.208Z,15.37
2018-01-28T14:14:23.866Z,12.27
2018-01-28T14:16:52.900Z,14.40
2018-01-28T14:19:21.286Z,12.47
2018-01-28T14:21:49.612Z,16.10
2018-01-28T14:24:17.903Z,15.40
2018-01-28T14:26:46.938Z,13.50
2018-01-28T14:29:15.244Z,16.10
2018-01-28T14:31:43.461Z,14.70
2018-01-28T14:34:11.795Z,16.10
2018-01-28T14:36:40.043Z,15.50
2018-01-28T14:39:08.344Z,14.47
2018-01-28T14:41:36.607Z,12.27
2018-01-28T14:44:06.142Z,11.60
2018-01-28T14:46:34.442Z,13.57
2018-01-28T14:49:03.603Z,13.97
2018-01-28T14:51:32.083Z,15.93
2018-01-28T14:54:01.362Z,10.57
2018-01-28T14:56:29.609Z,13.70
2018-01-28T14:58:57.862Z,16.13
2018-01-28T15:01:26.136Z,12.97
2018-01-28T15:03:54.575Z,12.17
2018-01-28T15:06:22.827Z,13.23
2018-01-28T15:08:51.090Z,15.30
2018-01-28T15:11:19.343Z,15.07
2018-01-28T15:13:47.779Z,17.50
2018-01-28T15:16:16.251Z,11.90
2018-01-28T15:18:44.529Z,15.63
2018-01-28T15:21:13.584Z,14.40
2018-01-28T15:23:41.832Z,13.47
2018-01-28T15:26:10.130Z,12.00
2018-01-28T15:28:38.400Z,11.47
2018-01-28T15:31:06.794Z,13.83
2018-01-28T15:33:35.090Z,15.00
2018-01-28T15:36:03.466Z,14.53
2018-01-28T15:38:31.746Z,12.63
2018-01-28T15:41:00.096Z,10.43
2018-01-28T15:43:28.418Z,11.27
2018-01-28T15:45:56.638Z,12.80
2018-01-28T15:48:24.970Z,14.37
2018-01-28T15:50:53.280Z,15.47
2018-01-28T15:53:21.657Z,11.07
2018-01-28T15:55:50.021Z,20.97
2018-01-28T15:58:18.448Z,18.23
2018-01-28T16:00:46.821Z,21.27
2018-01-28T16:03:15.339Z,15.03
2018-01-28T16:05:44.403Z,15.27
2018-01-28T16:08:13.432Z,13.50
2018-01-28T16:10:46.989Z,11.90
2018-01-28T16:13:15.372Z,15.77
2018-01-28T16:15:43.638Z,15.47
2018-01-28T16:18:12.029Z,16.47
2018-01-28T16:20:40.308Z,19.33
2018-01-28T16:23:08.596Z,19.80
2018-01-28T16:25:36.878Z,15.03
2018-01-28T16:28:05.924Z,17.07
2018-01-28T16:30:34.183Z,14.77
2018-01-28T16:33:02.570Z,17.20
2018-01-28T16:35:30.893Z,17.90
2018-01-28T16:37:59.162Z,14.17
2018-01-28T16:40:27.422Z,19.70
2018-01-28T16:42:55.700Z,21.33
2018-01-28T16:45:24.007Z,16.17
2018-01-28T16:47:53.111Z,19.90
2018-01-28T16:50:22.123Z,20.10
2018-01-28T16:52:50.549Z,20.53
2018-01-28T16:55:18.875Z,18.83
2018-01-28T16:57:47.146Z,17.20
2018-01-28T17:00:15.484Z,20.33
2018-01-28T17:02:44.722Z,14.30
2018-01-28T17:05:13.018Z,17.97
2018-01-28T17:07:41.353Z,16.97
2018-01-28T17:10:10.403Z,20.07
2018-01-28T17:12:38.712Z,19.20
2018-01-28T17:15:06.970Z,17.23
2018-01-28T17:17:35.404Z,15.33
2018-01-28T17:20:03.824Z,17.40
2018-01-28T17:22:32.859Z,20.33
2018-01-28T17:25:01.148Z,19.13
2018-01-28T17:27:29.414Z,18.63
2018-01-28T17:29:57.785Z,20.50
2018-01-28T17:32:26.098Z,14.93
2018-01-28T17:34:54.389Z,18.87
2018-01-28T17:37:22.678Z,21.70
2018-01-28T17:39:50.931Z,22.17
2018-01-28T17:42:19.212Z,18.83
2018-01-28T17:44:47.538Z,17.80
2018-01-28T17:47:15.812Z,17.60
2018-01-28T17:49:44.133Z,18.83
2018-01-28T17:52:12.419Z,16.20
2018-01-28T17:54:40.695Z,15.80
2018-01-28T17:57:09.734Z,14.33
2018-01-28T17:59:38.003Z,18.40
2018-01-28T18:02:06.330Z,18.77
2018-01-28T18:04:35.371Z,15.13
2018-01-28T18:07:03.654Z,16.40
2018-01-28T18:09:31.935Z,14.97
2018-01-28T18:12:00.351Z,15.63
2018-01-28T18:14:28.637Z,18.97
2018-01-28T18:16:57.119Z,15.60
2018-01-28T18:19:25.467Z,16.40
2018-01-28T18:21:53.738Z,16.17
2018-01-28T18:24:22.055Z,15.80
2018-01-28T18:26:51.219Z,15.00
2018-01-28T18:29:20.257Z,15.23
2018-01-28T18:31:48.570Z,16.67
2018-01-28T18:34:16.940Z,15.03
2018-01-28T18:36:46.082Z,13.27
2018-01-28T18:39:15.105Z,12.47
2018-01-28T18:41:43.594Z,14.00
2018-01-28T18:44:11.857Z,14.13
2018-01-28T18:46:40.102Z,14.60
2018-01-28T18:49:09.173Z,15.20
2018-01-28T18:51:37.520Z,17.17
2018-01-28T18:54:05.794Z,16.90
2018-01-28T18:56:34.143Z,15.30
2018-01-28T18:59:03.314Z,12.90
2018-01-28T19:01:31.543Z,14.53
2018-01-28T19:03:59.847Z,16.20
2018-01-28T19:06:28.150Z,15.00
2018-01-28T19:08:57.190Z,12.53
2018-01-28T19:11:25.524Z,14.43
2018-01-28T19:13:54.583Z,16.20
2018-01-28T19:16:22.875Z,15.53
2018-01-28T19:18:51.121Z,12.97
2018-01-28T19:21:19.518Z,14.70
2018-01-28T19:23:47.860Z,14.43
2018-01-28T19:26:16.159Z,14.23
2018-01-28T19:28:44.529Z,13.47
2018-01-28T19:31:12.837Z,15.80
2018-01-28T19:33:41.178Z,13.47
2018-01-28T19:36:09.407Z,12.80
2018-01-28T19:38:37.741Z,12.90
2018-01-28T19:41:06.017Z,11.57
2018-01-28T19:43:34.319Z,11.43
2018-01-28T19:46:03.381Z,11.53
2018-01-28T19:48:31.668Z,12.20
2018-01-28T19:51:00.082Z,12.27
2018-01-28T19:53:29.146Z,12.00
2018-01-28T19:55:57.430Z,11.13
2018-01-28T19:58:26.462Z,11.57
2018-01-28T20:00:54.804Z,11.43
2018-01-28T20:03:23.847Z,8.33
2018-01-28T20:05:52.126Z,11.47
2018-01-28T20:08:20.457Z,10.30
2018-01-28T20:10:49.494Z,9.53
2018-01-28T20:13:17.741Z,11.10
2018-01-28T20:15:46.011Z,10.07
2018-01-28T20:18:14.285Z,10.00
2018-01-28T20:20:42.580Z,9.30
2018-01-28T20:23:10.933Z,7.47
2018-01-28T20:25:39.988Z,8.80
2018-01-28T20:28:08.333Z,8.50
2018-01-28T20:30:36.703Z,8.10
2018-01-28T20:33:05.017Z,8.53
2018-01-28T20:35:33.231Z,8.37
2018-01-28T20:38:01.508Z,8.97
2018-01-28T20:40:29.859Z,8.10
2018-01-28T20:42:58.136Z,7.93
2018-01-28T20:45:26.411Z,8.43
2018-01-28T20:47:54.778Z,7.00
2018-01-28T20:50:23.031Z,8.30
2018-01-28T20:52:51.323Z,8.30
2018-01-28T20:55:19.631Z,7.83
2018-01-28T20:57:47.913Z,8.47
2018-01-28T21:00:16.932Z,9.57
2018-01-28T21:02:45.257Z,8.97
2018-01-28T21:05:13.547Z,8.37
2018-01-28T21:07:41.821Z,8.47
2018-01-28T21:10:10.183Z,8.60
2018-01-28T21:12:38.437Z,8.53
2018-01-28T21:15:09.752Z,8.07
2018-01-28T21:17:38.121Z,8.70
2018-01-28T21:20:06.377Z,9.97
2018-01-28T21:22:34.716Z,7.50
2018-01-28T21:25:02.974Z,9.03
2018-01-28T21:27:31.230Z,8.70
2018-01-28T21:29:59.488Z,8.77
2018-01-28T21:32:27.795Z,10.03
2018-01-28T21:34:56.154Z,9.87
2018-01-28T21:37:24.450Z,10.03
2018-01-28T21:39:52.723Z,9.47
2018-01-28T21:42:21.017Z,9.17
2018-01-28T21:44:49.283Z,9.03
2018-01-28T21:47:17.687Z,9.07
2018-01-28T21:49:45.913Z,9.60
2018-01-28T21:52:14.174Z,10.03
2018-01-28T21:54:42.466Z,10.17
2018-01-28T21:57:10.777Z,10.10
2018-01-28T21:59:39.227Z,9.97
2018-01-28T22:02:07.461Z,10.33
2018-01-28T22:04:35.736Z,10.83
2018-01-28T22:07:04.047Z,9.83
2018-01-28T22:09:32.311Z,10.37
2018-01-28T22:12:00.584Z,9.73
2018-01-28T22:14:28.865Z,8.70
2018-01-28T22:16:57.279Z,7.80
2018-01-28T22:19:25.542Z,8.03
2018-01-28T22:21:53.790Z,7.83
2018-01-28T22:24:22.091Z,8.00
2018-01-28T22:26:50.581Z,7.37
2018-01-28T22:29:18.821Z,7.20
2018-01-28T22:31:47.133Z,5.40
2018-01-28T22:34:15.395Z,5.47
2018-01-28T22:36:43.666Z,4.13
2018-01-28T22:39:11.934Z,4.70
2018-01-28T22:41:40.250Z,4.63
2018-01-28T22:44:08.491Z,5.57
2018-01-28T22:46:36.745Z,4.97
2018-01-28T22:49:05.009Z,4.60
2018-01-28T22:51:33.271Z,4.37
2018-01-28T22:54:01.538Z,5.07
2018-01-28T22:56:29.822Z,8.47
2018-01-28T22:58:58.102Z,5.57
2018-01-28T23:01:26.342Z,6.47
2018-01-28T23:03:55.394Z,9.23
2018-01-28T23:06:23.647Z,6.20
2018-01-28T23:08:51.944Z,7.87
2018-01-28T23:13:54.638Z,8.63
2018-01-28T23:16:22.878Z,7.20
2018-01-28T23:18:51.138Z,7.13
2018-01-28T23:21:20.175Z,7.23
2018-01-28T23:23:49.263Z,7.30
2018-01-28T23:26:17.541Z,6.90
2018-01-28T23:28:45.778Z,9.23
2018-01-28T23:31:14.061Z,9.10
2018-01-28T23:33:42.346Z,6.47
2018-01-28T23:36:10.607Z,5.70
2018-01-28T23:38:38.869Z,5.20
2018-01-28T23:41:07.886Z,4.83
2018-01-28T23:43:36.189Z,4.80
2018-01-28T23:46:04.533Z,6.17
2018-01-28T23:48:32.769Z,7.10
2018-01-28T23:51:01.037Z,5.37
2018-01-28T23:53:29.301Z,5.23
2018-01-28T23:55:57.574Z,4.90
2018-01-28T23:58:25.787Z,6.03
